createdAt,value
2023-03-11T00:00:47.315Z,2.73
2023-03-11T00:03:51.669Z,2.61
2023-03-11T00:06:55.917Z,2.68
2023-03-11T00:10:00.491Z,2.57
2023-03-11T00:13:08.271Z,2.71
2023-03-11T00:16:12.334Z,2.81
2023-03-11T00:19:16.236Z,2.95
2023-03-11T00:22:20.437Z,3.04
2023-03-11T00:25:26.223Z,3.14
2023-03-11T00:28:30.770Z,2.98
2023-03-11T00:31:35.652Z,2.83
2023-03-11T00:34:40.212Z,2.98
2023-03-11T00:37:44.912Z,3.14
2023-03-11T00:40:49.461Z,3.20
2023-03-11T00:43:53.582Z,3.29
2023-03-11T00:46:57.321Z,3.25
2023-03-11T00:50:01.769Z,2.83
2023-03-11T00:53:07.318Z,3.74
2023-03-11T00:56:16.524Z,4.29
2023-03-11T00:59:20.694Z,4.70
2023-03-11T01:02:26.268Z,5.34
2023-03-11T01:05:33.930Z,6.10
2023-03-11T01:08:39.375Z,6.68
2023-03-11T01:11:43.314Z,7.51
2023-03-11T01:14:47.954Z,8.26
2023-03-11T01:17:52.061Z,8.05
2023-03-11T01:20:55.924Z,7.58
2023-03-11T01:23:59.935Z,7.62
2023-03-11T01:27:04.295Z,7.21
2023-03-11T01:30:09.114Z,7.22
2023-03-11T01:33:18.836Z,6.76
2023-03-11T01:36:22.737Z,7.14
2023-03-11T01:39:26.732Z,6.61
2023-03-11T01:42:30.994Z,6.47
2023-03-11T01:46:04.062Z,6.48
2023-03-11T01:49:13.896Z,5.90
2023-03-11T01:52:18.021Z,5.05
2023-03-11T01:55:27.663Z,5.80
2023-03-11T01:58:36.824Z,5.93
2023-03-11T02:01:51.988Z,5.96
2023-03-11T02:04:58.002Z,5.76
2023-03-11T02:08:01.831Z,5.78
2023-03-11T02:11:15.042Z,6.16
2023-03-11T02:14:20.489Z,5.94
2023-03-11T02:17:25.257Z,5.90
2023-03-11T02:20:44.304Z,5.73
2023-03-11T02:23:53.682Z,5.70
2023-03-11T02:26:59.444Z,5.76
2023-03-11T02:30:06.257Z,6.06
2023-03-11T02:33:15.224Z,6.41
2023-03-11T02:36:39.018Z,6.62
2023-03-11T02:39:48.755Z,6.92
2023-03-11T02:42:57.570Z,7.03
2023-03-11T02:46:02.492Z,7.36
2023-03-11T02:49:08.332Z,7.53
2023-03-11T02:52:13.689Z,7.88
2023-03-11T02:55:19.006Z,7.78
2023-03-11T02:58:23.037Z,7.57
2023-03-11T03:01:27.777Z,7.36
2023-03-11T03:04:32.087Z,7.29
2023-03-11T03:07:37.431Z,7.21
2023-03-11T03:10:41.401Z,7.31
2023-03-11T03:13:46.129Z,7.17
2023-03-11T03:16:50.506Z,7.27
2023-03-11T03:19:55.653Z,7.45
2023-03-11T03:22:59.706Z,7.37
2023-03-11T03:26:09.535Z,7.47
2023-03-11T03:29:14.838Z,7.35
2023-03-11T03:32:19.589Z,7.12
2023-03-11T03:35:26.316Z,7.47
2023-03-11T03:38:36.054Z,7.42
2023-03-11T03:41:40.718Z,7.40
2023-03-11T03:44:45.186Z,7.39
2023-03-11T03:47:49.601Z,7.39
2023-03-11T03:50:54.308Z,7.31
2023-03-11T03:53:58.809Z,7.27
2023-03-11T03:57:05.733Z,6.51
2023-03-11T04:00:18.194Z,7.26
2023-03-11T04:03:29.722Z,7.24
2023-03-11T04:06:39.410Z,7.22
2023-03-11T04:09:44.891Z,7.35
2023-03-11T04:12:49.555Z,7.22
2023-03-11T04:15:53.992Z,7.19
2023-03-11T04:18:58.619Z,7.05
2023-03-11T04:22:02.691Z,6.52
2023-03-11T04:25:07.152Z,6.77
2023-03-11T04:28:11.285Z,6.62
2023-03-11T04:31:15.665Z,6.78
2023-03-11T04:34:19.796Z,6.55
2023-03-11T04:37:24.237Z,6.70
2023-03-11T04:40:29.072Z,7.02
2023-03-11T04:43:33.573Z,6.71
2023-03-11T04:46:37.513Z,6.58
2023-03-11T04:49:44.688Z,6.89
2023-03-11T04:52:49.548Z,6.57
2023-03-11T04:55:54.574Z,6.47
2023-03-11T04:58:58.659Z,6.36
2023-03-11T05:02:03.779Z,6.27
2023-03-11T05:05:10.267Z,6.24
2023-03-11T05:08:15.784Z,6.51
2023-03-11T05:11:19.503Z,6.32
2023-03-11T05:14:25.483Z,6.02
2023-03-11T05:17:31.690Z,6.31
2023-03-11T05:20:35.779Z,6.28
2023-03-11T05:23:40.744Z,6.36
2023-03-11T05:26:48.432Z,6.57
2023-03-11T05:29:53.547Z,6.51
2023-03-11T05:32:59.204Z,6.52
2023-03-11T05:36:09.116Z,6.42
2023-03-11T05:39:17.038Z,6.41
2023-03-11T05:42:21.604Z,6.08
2023-03-11T05:45:29.227Z,6.30
2023-03-11T05:48:37.060Z,6.20
2023-03-11T05:51:42.119Z,6.42
2023-03-11T05:54:46.563Z,6.21
2023-03-11T05:57:53.207Z,5.96
2023-03-11T06:00:58.107Z,6.00
2023-03-11T06:04:03.021Z,6.32
2023-03-11T06:07:07.043Z,6.03
2023-03-11T06:10:14.496Z,5.93
2023-03-11T06:13:19.119Z,5.86
2023-03-11T06:16:28.562Z,6.21
2023-03-11T06:19:36.330Z,6.02
2023-03-11T06:22:40.667Z,6.13
2023-03-11T06:25:45.643Z,6.07
2023-03-11T06:28:51.770Z,5.89
2023-03-11T06:31:56.281Z,5.99
2023-03-11T06:35:00.419Z,6.13
2023-03-11T06:38:04.436Z,6.10
2023-03-11T06:41:09.593Z,6.24
2023-03-11T06:44:13.787Z,6.07
2023-03-11T06:47:18.583Z,5.98
2023-03-11T06:50:24.675Z,6.27
2023-03-11T06:53:31.285Z,6.30
2023-03-11T06:56:36.126Z,6.27
2023-03-11T06:59:43.825Z,6.05
2023-03-11T07:02:50.936Z,6.20
2023-03-11T07:05:55.020Z,5.43
2023-03-11T07:08:59.747Z,6.19
2023-03-11T07:16:45.439Z,5.59
2023-03-11T07:20:21.763Z,6.22
2023-03-11T07:28:05.191Z,5.91
2023-03-11T07:31:43.627Z,5.56
2023-03-11T07:35:21.936Z,5.84
2023-03-11T07:39:28.768Z,6.00
2023-03-11T07:43:03.942Z,5.93
2023-03-11T07:46:24.546Z,5.35
2023-03-11T07:49:48.437Z,5.45
2023-03-11T07:52:52.927Z,5.76
2023-03-11T07:56:00.766Z,5.45
2023-03-11T07:59:06.141Z,5.69
2023-03-11T08:02:11.688Z,5.55
2023-03-11T08:05:16.083Z,5.41
2023-03-11T08:08:23.196Z,4.22
2023-03-11T08:11:27.476Z,5.25
2023-03-11T08:14:31.221Z,5.19
2023-03-11T08:17:35.429Z,5.36
2023-03-11T08:20:40.920Z,5.38
2023-03-11T08:23:48.118Z,5.30
2023-03-11T08:26:52.154Z,5.43
2023-03-11T08:29:56.290Z,5.30
2023-03-11T08:33:00.865Z,5.24
2023-03-11T08:36:05.272Z,5.28
2023-03-11T08:39:10.149Z,5.25
2023-03-11T08:42:14.300Z,5.08
2023-03-11T08:45:18.967Z,4.92
2023-03-11T08:48:26.280Z,4.70
2023-03-11T08:51:31.898Z,4.46
2023-03-11T08:54:36.222Z,4.31
2023-03-11T08:57:41.774Z,4.18
2023-03-11T09:00:45.789Z,4.23
2023-03-11T09:03:49.792Z,4.22
2023-03-11T09:06:53.783Z,3.99
2023-03-11T09:10:02.037Z,4.01
2023-03-11T09:13:06.488Z,3.76
2023-03-11T09:16:15.212Z,3.79
2023-03-11T09:19:20.732Z,4.02
2023-03-11T09:22:25.511Z,3.98
2023-03-11T09:25:29.681Z,4.08
2023-03-11T09:28:34.311Z,4.01
2023-03-11T09:31:39.415Z,3.69
2023-03-11T09:34:43.971Z,3.79
2023-03-11T09:37:47.973Z,3.62
2023-03-11T09:41:18.222Z,3.40
2023-03-11T09:44:57.798Z,3.42
2023-03-11T09:48:32.163Z,3.41
2023-03-11T09:51:47.824Z,3.09
2023-03-11T09:54:56.609Z,3.08
2023-03-11T09:58:05.772Z,2.93
2023-03-11T10:01:31.054Z,3.32
2023-03-11T10:04:43.307Z,3.39
2023-03-11T10:07:56.341Z,3.02
2023-03-11T10:11:31.408Z,3.00
2023-03-11T10:14:41.753Z,3.00
2023-03-11T10:18:14.796Z,3.12
2023-03-11T10:21:30.974Z,2.89
2023-03-11T10:25:16.695Z,2.83
2023-03-11T10:28:24.008Z,2.44
2023-03-11T10:31:49.891Z,2.63
2023-03-11T10:34:58.368Z,2.83
2023-03-11T10:38:12.915Z,2.79
2023-03-11T10:42:03.598Z,2.64
2023-03-11T10:45:14.936Z,3.00
2023-03-11T10:48:21.571Z,3.11
2023-03-11T10:51:35.529Z,2.87
2023-03-11T10:54:46.975Z,2.66
2023-03-11T10:57:52.985Z,2.78
2023-03-11T11:01:17.279Z,2.56
2023-03-11T11:04:39.077Z,2.80
2023-03-11T11:07:44.386Z,2.39
2023-03-11T11:11:00.486Z,2.38
2023-03-11T11:14:04.649Z,2.73
2023-03-11T11:17:25.130Z,2.96
2023-03-11T11:20:31.444Z,2.93
2023-03-11T11:23:49.795Z,2.41
2023-03-11T11:27:13.062Z,2.69
2023-03-11T11:30:20.599Z,2.27
2023-03-11T11:33:28.588Z,2.29
2023-03-11T11:36:36.988Z,2.81
2023-03-11T11:39:53.320Z,2.65
2023-03-11T11:43:11.076Z,2.27
2023-03-11T11:46:57.022Z,2.28
2023-03-11T11:50:08.208Z,2.25
2023-03-11T11:53:45.518Z,2.15
2023-03-11T11:56:49.867Z,2.24
2023-03-11T11:59:56.467Z,2.29
2023-03-11T12:03:11.341Z,2.41
2023-03-11T12:06:27.412Z,2.38
2023-03-11T12:09:38.701Z,2.09
2023-03-11T12:13:20.223Z,1.97
2023-03-11T12:17:05.453Z,2.06
2023-03-11T12:20:29.557Z,2.49
2023-03-11T12:23:38.084Z,2.72
2023-03-11T12:26:44.877Z,2.73
2023-03-11T12:29:59.233Z,2.49
2023-03-11T12:33:23.910Z,2.57
2023-03-11T12:36:33.102Z,2.40
2023-03-11T12:39:37.496Z,2.36
2023-03-11T12:42:42.244Z,2.05
2023-03-11T12:45:52.531Z,1.92
2023-03-11T12:49:33.671Z,1.69
2023-03-11T12:52:54.845Z,1.64
2023-03-11T12:56:12.758Z,1.85
2023-03-11T12:59:46.250Z,1.88
2023-03-11T13:03:02.957Z,2.07
2023-03-11T13:06:32.332Z,1.77
2023-03-11T13:09:36.650Z,1.48
2023-03-11T13:12:46.461Z,1.47
2023-03-11T13:15:50.934Z,1.28
2023-03-11T13:18:54.608Z,1.26
2023-03-11T13:22:00.842Z,1.33
2023-03-11T13:25:31.839Z,1.13
2023-03-11T13:28:51.480Z,1.09
2023-03-11T13:32:06.106Z,0.99
2023-03-11T13:35:36.650Z,0.85
2023-03-11T13:38:53.296Z,0.39
2023-03-11T13:41:57.511Z,0.85
2023-03-11T13:45:02.644Z,0.96
2023-03-11T13:48:19.691Z,0.83
2023-03-11T13:51:32.325Z,0.71
2023-03-11T13:54:54.217Z,0.77
2023-03-11T13:57:59.071Z,0.65
2023-03-11T14:01:04.181Z,0.63
2023-03-11T14:04:12.531Z,0.76
2023-03-11T14:07:25.189Z,0.78
2023-03-11T14:10:31.526Z,1.35
2023-03-11T14:13:41.008Z,1.33
2023-03-11T14:16:46.069Z,0.86
2023-03-11T14:20:17.428Z,1.21
2023-03-11T14:23:22.634Z,1.27
2023-03-11T14:26:33.765Z,0.96
2023-03-11T14:29:41.149Z,0.76
2023-03-11T14:32:57.939Z,0.63
2023-03-11T14:36:06.875Z,0.51
2023-03-11T14:39:47.687Z,0.52
2023-03-11T14:42:57.050Z,-0.25
2023-03-11T14:46:02.258Z,0.62
2023-03-11T14:49:14.310Z,0.78
2023-03-11T14:52:42.504Z,0.61
2023-03-11T14:56:12.824Z,0.55
2023-03-11T14:59:27.403Z,0.59
2023-03-11T15:02:41.173Z,0.72
2023-03-11T15:06:04.737Z,0.35
2023-03-11T15:09:16.769Z,0.09
2023-03-11T15:12:50.573Z,0.16
2023-03-11T15:16:02.708Z,-0.07
2023-03-11T15:19:32.243Z,0.29
2023-03-11T15:22:41.626Z,0.31
2023-03-11T15:25:51.471Z,0.45
2023-03-11T15:28:58.272Z,0.53
2023-03-11T15:32:22.241Z,0.27
2023-03-11T15:35:31.061Z,0.36
2023-03-11T15:38:35.076Z,0.62
2023-03-11T15:41:39.069Z,0.70
2023-03-11T15:48:17.148Z,0.12
2023-03-11T15:51:21.930Z,0.10
2023-03-11T15:54:26.425Z,-0.34
2023-03-11T15:57:31.702Z,0.19
2023-03-11T16:00:37.087Z,0.16
2023-03-11T16:03:41.721Z,0.01
2023-03-11T16:06:53.947Z,-0.40
2023-03-11T16:10:08.593Z,0.18
2023-03-11T16:13:16.979Z,-0.34
2023-03-11T16:16:21.466Z,-0.27
2023-03-11T16:19:25.718Z,-0.19
2023-03-11T16:22:37.409Z,-0.26
2023-03-11T16:25:42.153Z,-0.14
2023-03-11T16:28:46.279Z,-0.26
2023-03-11T16:31:50.453Z,-0.23
2023-03-11T16:34:54.943Z,-0.25
2023-03-11T16:37:59.004Z,-0.19
2023-03-11T16:41:04.484Z,-0.01
2023-03-11T16:44:09.745Z,0.04
2023-03-11T16:47:14.637Z,-0.30
2023-03-11T16:50:21.629Z,-0.06
2023-03-11T16:53:27.136Z,-0.08
2023-03-11T16:56:31.925Z,0.05
2023-03-11T16:59:36.076Z,0.30
2023-03-11T17:02:40.375Z,0.13
2023-03-11T17:05:44.536Z,-0.22
2023-03-11T17:08:50.883Z,-0.26
2023-03-11T17:11:54.906Z,-0.61
2023-03-11T17:14:58.816Z,-0.49
2023-03-11T17:18:03.537Z,-0.17
2023-03-11T17:21:13.037Z,-0.13
2023-03-11T17:24:17.218Z,-0.41
2023-03-11T17:27:23.026Z,-0.46
2023-03-11T17:30:36.478Z,-0.49
2023-03-11T17:33:44.615Z,-0.42
2023-03-11T17:36:49.690Z,-0.69
2023-03-11T17:39:54.222Z,-0.35
2023-03-11T17:42:58.351Z,-0.05
2023-03-11T17:46:02.170Z,-0.01
2023-03-11T17:49:06.061Z,-0.12
2023-03-11T17:52:10.126Z,-0.67
2023-03-11T17:55:14.474Z,-0.11
2023-03-11T17:58:18.544Z,-0.06
2023-03-11T18:01:28.111Z,0.10
2023-03-11T18:04:32.504Z,0.21
2023-03-11T18:07:39.696Z,0.13
2023-03-11T18:10:53.365Z,0.22
2023-03-11T18:13:57.486Z,0.24
2023-03-11T18:17:01.984Z,0.12
2023-03-11T18:20:06.675Z,0.15
2023-03-11T18:23:10.687Z,0.17
2023-03-11T18:26:19.283Z,0.32
2023-03-11T18:29:24.430Z,0.20
2023-03-11T18:32:28.999Z,0.03
2023-03-11T18:35:35.960Z,-0.19
2023-03-11T18:38:40.064Z,-0.27
2023-03-11T18:41:44.551Z,-0.11
2023-03-11T18:44:48.529Z,-0.28
2023-03-11T18:47:52.815Z,0.01
2023-03-11T18:50:57.280Z,0.03
2023-03-11T18:54:04.175Z,-0.09
2023-03-11T18:57:08.333Z,-0.30
2023-03-11T19:00:13.695Z,-0.15
2023-03-11T19:03:17.637Z,-0.55
2023-03-11T19:06:23.416Z,-0.08
2023-03-11T19:09:27.535Z,-0.20
2023-03-11T19:12:34.500Z,-0.21
2023-03-11T19:15:42.699Z,-0.11
2023-03-11T19:18:47.446Z,-0.05
2023-03-11T19:21:51.721Z,-0.21
2023-03-11T19:24:56.181Z,0.03
2023-03-11T19:28:00.319Z,0.01
2023-03-11T19:31:05.412Z,0.05
2023-03-11T19:34:09.508Z,-0.26
2023-03-11T19:37:13.949Z,-0.30
2023-03-11T19:40:18.959Z,-0.16
2023-03-11T19:43:24.642Z,-0.30
2023-03-11T19:46:29.343Z,-0.25
2023-03-11T19:49:33.920Z,-0.31
2023-03-11T19:52:38.392Z,-0.31
2023-03-11T19:55:47.484Z,-0.35
2023-03-11T19:58:55.856Z,-1.15
2023-03-11T20:02:04.646Z,-0.34
2023-03-11T20:05:09.513Z,-0.40
2023-03-11T20:08:18.699Z,-0.41
2023-03-11T20:11:25.755Z,-0.34
2023-03-11T20:14:30.285Z,-0.36
2023-03-11T20:17:35.869Z,-0.33
2023-03-11T20:20:44.242Z,-0.30
2023-03-11T20:23:49.691Z,-0.28
2023-03-11T20:26:54.382Z,-0.28
2023-03-11T20:29:58.354Z,-0.47
2023-03-11T20:33:02.699Z,-0.30
2023-03-11T20:36:09.111Z,-0.39
2023-03-11T20:39:13.448Z,-0.49
2023-03-11T20:42:17.537Z,-0.38
2023-03-11T20:45:22.669Z,-0.37
2023-03-11T20:48:27.281Z,-0.18
2023-03-11T20:51:31.951Z,-0.31
2023-03-11T20:54:35.819Z,-0.32
2023-03-11T20:57:41.045Z,-0.17
2023-03-11T21:00:44.883Z,-0.47
2023-03-11T21:03:49.921Z,-0.30
2023-03-11T21:06:55.650Z,-0.13
2023-03-11T21:09:59.809Z,-0.08
2023-03-11T21:13:03.800Z,-0.08
2023-03-11T21:16:09.900Z,-0.21
2023-03-11T21:19:14.313Z,-0.28
2023-03-11T21:22:21.051Z,-0.33
2023-03-11T21:25:27.677Z,-0.02
2023-03-11T21:28:32.207Z,0.28
2023-03-11T21:31:37.608Z,0.22
2023-03-11T21:34:41.762Z,0.10
2023-03-11T21:37:47.264Z,0.37
2023-03-11T21:40:52.616Z,0.37
2023-03-11T21:43:58.011Z,0.12
2023-03-11T21:47:02.611Z,-0.09
2023-03-11T21:50:07.672Z,-0.12
2023-03-11T21:53:11.918Z,-0.39
2023-03-11T21:56:16.249Z,0.07
2023-03-11T21:59:21.935Z,-0.02
2023-03-11T22:02:27.903Z,0.06
2023-03-11T22:05:32.247Z,-0.48
2023-03-11T22:08:36.547Z,0.02
2023-03-11T22:11:40.996Z,-0.17
2023-03-11T22:14:45.030Z,0.02
2023-03-11T22:17:49.783Z,0.24
2023-03-11T22:20:53.887Z,0.38
2023-03-11T22:23:58.216Z,0.36
2023-03-11T22:27:02.103Z,0.57
2023-03-11T22:30:07.479Z,0.62
2023-03-11T22:33:11.350Z,0.68
2023-03-11T22:36:15.214Z,0.74
2023-03-11T22:39:19.350Z,0.76
2023-03-11T22:42:23.779Z,0.46
2023-03-11T22:45:27.868Z,0.43
2023-03-11T22:48:32.222Z,0.61
2023-03-11T22:51:36.756Z,0.69
2023-03-11T22:54:41.254Z,1.06
2023-03-11T22:57:45.132Z,1.14
2023-03-11T23:00:49.876Z,1.21
2023-03-11T23:03:54.167Z,1.06
2023-03-11T23:06:58.516Z,1.22
2023-03-11T23:10:02.439Z,1.32
2023-03-11T23:13:07.028Z,0.98
2023-03-11T23:16:17.334Z,1.03
2023-03-11T23:19:21.397Z,0.83
2023-03-11T23:22:25.652Z,0.95
2023-03-11T23:25:29.952Z,0.83
2023-03-11T23:28:34.178Z,0.68
2023-03-11T23:31:38.078Z,0.91
2023-03-11T23:34:42.159Z,0.83
2023-03-11T23:37:50.036Z,0.97
2023-03-11T23:40:54.392Z,0.88
2023-03-11T23:43:58.352Z,0.98
2023-03-11T23:47:02.214Z,1.07
2023-03-11T23:50:07.078Z,1.13
2023-03-11T23:53:11.213Z,1.06
2023-03-11T23:56:18.722Z,1.24
2023-03-11T23:59:22.768Z,1.07
